createdAt,value
2019-02-05T00:02:26.821Z,95687.70
2019-02-05T00:04:55.306Z,95682.65
2019-02-05T00:07:23.503Z,95692.51
2019-02-05T00:09:51.472Z,95683.30
2019-02-05T00:12:18.973Z,95678.89
2019-02-05T00:14:46.411Z,95677.09
2019-02-05T00:17:13.860Z,95668.65
2019-02-05T00:19:41.406Z,95676.20
2019-02-05T00:22:08.933Z,95676.30
2019-02-05T00:24:36.427Z,95679.47
2019-02-05T00:27:04.070Z,95683.65
2019-02-05T00:29:31.490Z,95682.56
2019-02-05T00:31:58.932Z,95680.48
2019-02-05T00:34:26.432Z,95672.98
2019-02-05T00:36:53.784Z,95673.13
2019-02-05T00:39:21.286Z,95670.14
2019-02-05T00:41:48.709Z,95683.08
2019-02-05T00:44:16.095Z,95683.02
2019-02-05T00:46:43.537Z,95685.79
2019-02-05T00:49:11.000Z,95684.05
2019-02-05T00:51:38.407Z,95684.38
2019-02-05T00:54:06.092Z,95680.41
2019-02-05T00:56:33.672Z,95678.98
2019-02-05T00:59:01.294Z,95693.13
2019-02-05T01:01:28.819Z,95686.52
2019-02-05T01:03:56.369Z,95678.01
2019-02-05T01:06:23.770Z,95670.47
2019-02-05T01:08:51.341Z,95657.91
2019-02-05T01:11:18.808Z,95670.05
2019-02-05T01:13:46.181Z,95667.62
2019-02-05T01:16:13.628Z,95663.82
2019-02-05T01:18:41.206Z,95672.78
2019-02-05T01:21:08.566Z,95668.95
2019-02-05T01:23:35.976Z,95659.64
2019-02-05T01:26:03.848Z,95663.05
2019-02-05T01:28:31.316Z,95663.11
2019-02-05T01:30:58.705Z,95661.88
2019-02-05T01:33:26.172Z,95666.45
2019-02-05T01:35:53.716Z,95656.29
2019-02-05T01:38:21.099Z,95651.02
2019-02-05T01:40:48.547Z,95653.38
2019-02-05T01:43:15.999Z,95651.57
2019-02-05T01:45:43.406Z,95656.38
2019-02-05T01:48:10.908Z,95646.92
2019-02-05T01:50:38.364Z,95640.05
2019-02-05T01:53:05.931Z,95643.89
2019-02-05T01:55:33.284Z,95649.68
2019-02-05T01:58:00.725Z,95647.47
2019-02-05T02:00:30.922Z,95650.97
2019-02-05T02:02:58.443Z,95661.36
2019-02-05T02:05:26.408Z,95646.97
2019-02-05T02:07:53.849Z,95652.98
2019-02-05T02:10:23.274Z,95649.06
2019-02-05T02:12:50.999Z,95639.42
2019-02-05T02:15:18.591Z,95641.61
2019-02-05T02:17:46.189Z,95642.17
2019-02-05T02:20:15.622Z,95644.86
2019-02-05T02:22:43.291Z,95649.47
2019-02-05T02:25:11.304Z,95648.81
2019-02-05T02:27:38.842Z,95638.00
2019-02-05T02:30:11.169Z,95640.41
2019-02-05T02:32:38.782Z,95648.34
2019-02-05T02:35:06.272Z,95642.25
2019-02-05T02:37:33.735Z,95633.95
2019-02-05T02:40:01.194Z,95641.28
2019-02-05T02:42:29.030Z,95650.19
2019-02-05T02:44:56.545Z,95650.81
2019-02-05T02:47:24.006Z,95640.25
2019-02-05T02:49:51.446Z,95650.26
2019-02-05T02:52:18.891Z,95654.11
2019-02-05T02:54:46.328Z,95654.17
2019-02-05T02:57:14.123Z,95664.27
2019-02-05T02:59:41.690Z,95654.88
2019-02-05T03:02:09.104Z,95655.38
2019-02-05T03:04:36.622Z,95659.66
2019-02-05T03:07:04.195Z,95659.64
2019-02-05T03:09:31.648Z,95660.96
2019-02-05T03:11:59.212Z,95657.92
2019-02-05T03:14:26.579Z,95656.27
2019-02-05T03:16:54.022Z,95654.90
2019-02-05T03:19:21.867Z,95667.38
2019-02-05T03:21:49.262Z,95655.96
2019-02-05T03:24:16.679Z,95650.38
2019-02-05T03:26:44.145Z,95650.45
2019-02-05T03:29:11.566Z,95646.34
2019-02-05T03:31:39.174Z,95645.69
2019-02-05T03:34:06.734Z,95639.03
2019-02-05T03:36:34.128Z,95641.17
2019-02-05T03:39:01.579Z,95645.95
2019-02-05T03:41:29.047Z,95652.15
2019-02-05T03:43:56.403Z,95654.85
2019-02-05T03:46:24.351Z,95653.70
2019-02-05T03:48:52.076Z,95639.02
2019-02-05T03:51:40.355Z,95634.89
2019-02-05T03:54:38.661Z,95635.44
2019-02-05T03:57:51.319Z,95641.77
2019-02-05T04:01:09.148Z,95639.36
2019-02-05T04:04:29.510Z,95640.83
2019-02-05T04:07:18.144Z,95641.55
2019-02-05T04:10:51.379Z,95640.04
2019-02-05T04:13:48.503Z,95637.44
2019-02-05T04:16:50.282Z,95636.73
2019-02-05T04:19:47.961Z,95643.69
2019-02-05T04:22:52.268Z,95639.46
2019-02-05T04:25:47.507Z,95640.17
2019-02-05T04:28:48.061Z,95627.66
2019-02-05T04:31:38.770Z,95626.94
2019-02-05T04:34:48.582Z,95623.15
2019-02-05T04:37:42.747Z,95621.86
2019-02-05T04:40:56.321Z,95623.10
2019-02-05T04:44:02.574Z,95620.30
2019-02-05T04:46:42.360Z,95621.13
2019-02-05T04:49:54.346Z,95621.86
2019-02-05T04:52:51.581Z,95622.66
2019-02-05T04:55:35.328Z,95626.73
2019-02-05T04:58:37.847Z,95627.66
2019-02-05T05:01:36.955Z,95645.86
2019-02-05T05:04:50.742Z,95635.88
2019-02-05T05:07:47.085Z,95641.45
2019-02-05T05:10:14.550Z,95645.59
2019-02-05T05:12:42.021Z,95643.93
2019-02-05T05:15:10.817Z,95649.87
2019-02-05T05:17:38.271Z,95651.51
2019-02-05T05:20:08.110Z,95644.80
2019-02-05T05:22:36.213Z,95647.70
2019-02-05T05:25:05.261Z,95651.48
2019-02-05T05:27:33.107Z,95650.70
2019-02-05T05:30:00.636Z,95652.23
2019-02-05T05:32:28.055Z,95653.80
2019-02-05T05:34:55.508Z,95650.26
2019-02-05T05:37:22.992Z,95648.92
2019-02-05T05:39:50.438Z,95655.62
2019-02-05T05:42:17.887Z,95660.12
2019-02-05T05:44:45.661Z,95665.41
2019-02-05T05:47:13.135Z,95658.98
2019-02-05T05:49:40.600Z,95660.98
2019-02-05T05:52:08.091Z,95656.45
2019-02-05T05:54:35.549Z,95667.73
2019-02-05T05:57:03.146Z,95673.89
2019-02-05T05:59:30.664Z,95668.59
2019-02-05T06:01:58.157Z,95678.87
2019-02-05T06:04:25.844Z,95678.05
2019-02-05T06:06:53.282Z,95671.20
2019-02-05T06:09:20.697Z,95676.31
2019-02-05T06:11:48.160Z,95685.19
2019-02-05T06:14:15.594Z,95690.05
2019-02-05T06:16:43.216Z,95687.65
2019-02-05T06:19:10.684Z,95690.50
2019-02-05T06:21:38.335Z,95691.45
2019-02-05T06:24:05.880Z,95693.91
2019-02-05T06:26:33.397Z,95691.51
2019-02-05T06:29:01.007Z,95693.47
2019-02-05T06:31:28.445Z,95697.09
2019-02-05T06:33:56.001Z,95690.61
2019-02-05T06:36:23.446Z,95699.83
2019-02-05T06:38:51.005Z,95696.30
2019-02-05T06:41:18.966Z,95700.26
2019-02-05T06:43:46.366Z,95698.09
2019-02-05T06:46:13.883Z,95694.60
2019-02-05T06:48:41.300Z,95697.91
2019-02-05T06:51:08.774Z,95697.09
2019-02-05T06:53:36.222Z,95689.53
2019-02-05T06:56:04.311Z,95697.08
2019-02-05T06:58:31.855Z,95695.97
2019-02-05T07:00:59.626Z,95708.65
2019-02-05T07:03:27.099Z,95691.40
2019-02-05T07:05:54.572Z,95693.67
2019-02-05T07:08:22.036Z,95701.89
2019-02-05T07:10:49.838Z,95701.39
2019-02-05T07:13:17.330Z,95691.22
2019-02-05T07:15:44.779Z,95703.11
2019-02-05T07:18:12.525Z,95701.87
2019-02-05T07:20:40.221Z,95703.05
2019-02-05T07:23:07.827Z,95709.02
2019-02-05T07:25:35.268Z,95707.76
2019-02-05T07:28:02.813Z,95697.95
2019-02-05T07:30:30.314Z,95702.52
2019-02-05T07:32:57.946Z,95700.45
2019-02-05T07:35:25.484Z,95696.42
2019-02-05T07:37:53.444Z,95697.41
2019-02-05T07:40:23.083Z,95696.94
2019-02-05T07:42:50.577Z,95700.39
2019-02-05T07:45:19.408Z,95713.20
2019-02-05T07:47:46.976Z,95715.34
2019-02-05T07:50:16.733Z,95716.61
2019-02-05T07:52:44.342Z,95717.86
2019-02-05T07:55:12.290Z,95712.28
2019-02-05T07:57:40.190Z,95721.33
2019-02-05T08:00:12.354Z,95721.00
2019-02-05T08:02:39.849Z,95713.05
2019-02-05T08:05:11.139Z,95718.63
2019-02-05T08:07:38.612Z,95708.78
2019-02-05T08:10:06.995Z,95707.20
2019-02-05T08:12:34.503Z,95701.51
2019-02-05T08:15:01.913Z,95707.57
2019-02-05T08:17:29.816Z,95705.64
2019-02-05T08:19:57.679Z,95702.64
2019-02-05T08:22:25.396Z,95697.22
2019-02-05T08:24:52.841Z,95700.91
2019-02-05T08:27:20.246Z,95706.80
2019-02-05T08:29:47.732Z,95710.66
2019-02-05T08:32:15.271Z,95715.82
2019-02-05T08:34:42.796Z,95716.57
2019-02-05T08:37:10.363Z,95714.45
2019-02-05T08:39:38.161Z,95720.53
2019-02-05T08:42:05.564Z,95709.59
2019-02-05T08:44:33.051Z,95700.08
2019-02-05T08:47:00.493Z,95701.97
2019-02-05T08:49:27.936Z,95700.39
2019-02-05T08:51:55.413Z,95707.36
2019-02-05T08:54:22.897Z,95700.38
2019-02-05T08:56:50.277Z,95702.16
2019-02-05T08:59:18.120Z,95702.78
2019-02-05T09:01:46.531Z,95698.42
2019-02-05T09:04:14.066Z,95697.54
2019-02-05T09:06:41.525Z,95708.28
2019-02-05T09:09:09.071Z,95705.59
2019-02-05T09:11:36.564Z,95705.69
2019-02-05T09:14:10.873Z,95703.36
2019-02-05T09:16:33.581Z,95709.53
2019-02-05T09:19:01.189Z,95704.16
2019-02-05T09:21:28.740Z,95712.99
2019-02-05T09:23:56.213Z,95706.90
2019-02-05T09:26:23.724Z,95697.75
2019-02-05T09:28:52.542Z,95696.48
2019-02-05T09:31:20.142Z,95692.21
2019-02-05T09:33:47.706Z,95693.25
2019-02-05T09:36:15.147Z,95688.58
2019-02-05T09:38:42.580Z,95685.55
2019-02-05T09:41:10.113Z,95687.22
2019-02-05T09:43:37.578Z,95682.36
2019-02-05T09:46:05.034Z,95675.42
2019-02-05T09:48:32.467Z,95684.30
2019-02-05T09:50:59.937Z,95680.98
2019-02-05T09:53:27.539Z,95688.39
2019-02-05T09:55:54.950Z,95676.27
2019-02-05T09:58:22.392Z,95671.14
2019-02-05T10:00:49.843Z,95676.92
2019-02-05T10:03:17.803Z,95664.12
2019-02-05T10:05:45.615Z,95663.67
2019-02-05T10:08:13.112Z,95654.44
2019-02-05T10:10:40.579Z,95654.96
2019-02-05T10:13:08.620Z,95654.27
2019-02-05T10:15:37.412Z,95655.78
2019-02-05T10:18:07.860Z,95645.09
2019-02-05T10:20:35.367Z,95639.73
2019-02-05T10:23:04.758Z,95636.48
2019-02-05T10:25:32.292Z,95632.13
2019-02-05T10:27:59.763Z,95623.27
2019-02-05T10:30:29.719Z,95624.19
2019-02-05T10:32:57.299Z,95617.20
2019-02-05T10:35:25.095Z,95618.38
2019-02-05T10:37:52.896Z,95619.63
2019-02-05T10:40:21.209Z,95620.11
2019-02-05T10:42:48.610Z,95610.62
2019-02-05T10:45:16.976Z,95610.39
2019-02-05T10:47:44.604Z,95615.62
2019-02-05T10:50:15.419Z,95594.81
2019-02-05T10:52:43.628Z,95600.78
2019-02-05T10:55:12.750Z,95600.08
2019-02-05T10:57:40.175Z,95592.80
2019-02-05T11:00:19.553Z,95582.23
2019-02-05T11:02:47.661Z,95577.56
2019-02-05T11:05:18.043Z,95580.92
2019-02-05T11:07:46.007Z,95583.59
2019-02-05T11:10:13.911Z,95568.69
2019-02-05T11:12:41.394Z,95567.28
2019-02-05T11:15:11.954Z,95564.53
2019-02-05T11:17:39.309Z,95565.37
2019-02-05T11:20:10.803Z,95561.57
2019-02-05T11:22:38.373Z,95546.30
2019-02-05T11:25:06.892Z,95552.59
2019-02-05T11:27:37.299Z,95543.69
2019-02-05T11:30:07.880Z,95545.93
2019-02-05T11:32:35.312Z,95542.73
2019-02-05T11:35:03.397Z,95541.28
2019-02-05T11:37:30.784Z,95532.92
2019-02-05T11:39:58.297Z,95543.30
2019-02-05T11:42:26.143Z,95529.23
2019-02-05T11:44:53.722Z,95533.05
2019-02-05T11:47:21.245Z,95533.29
2019-02-05T11:49:48.673Z,95518.47
2019-02-05T11:52:16.037Z,95522.05
2019-02-05T11:54:43.517Z,95521.36
2019-02-05T11:57:11.180Z,95516.94
2019-02-05T11:59:38.687Z,95511.84
2019-02-05T12:02:06.887Z,95512.02
2019-02-05T12:04:34.359Z,95510.27
2019-02-05T12:07:02.803Z,95510.82
2019-02-05T12:09:30.274Z,95501.77
2019-02-05T12:11:57.857Z,95499.06
2019-02-05T12:14:25.318Z,95493.97
2019-02-05T12:16:52.729Z,95499.86
2019-02-05T12:19:20.225Z,95498.37
2019-02-05T12:21:48.056Z,95484.01
2019-02-05T12:24:15.709Z,95487.66
2019-02-05T12:26:44.466Z,95482.06
2019-02-05T12:29:12.049Z,95473.91
2019-02-05T12:31:39.516Z,95471.67
2019-02-05T12:34:07.098Z,95470.05
2019-02-05T12:36:34.756Z,95469.76
2019-02-05T12:39:02.212Z,95459.49
2019-02-05T12:41:30.040Z,95454.37
2019-02-05T12:43:59.663Z,95458.44
2019-02-05T12:46:26.930Z,95459.81
2019-02-05T12:48:54.371Z,95453.76
2019-02-05T12:51:22.691Z,95446.52
2019-02-05T12:53:50.084Z,95450.39
2019-02-05T12:56:17.450Z,95443.77
2019-02-05T12:58:45.119Z,95442.27
2019-02-05T13:01:12.921Z,95447.88
2019-02-05T13:03:40.891Z,95439.72
2019-02-05T13:06:08.478Z,95436.28
2019-02-05T13:08:35.951Z,95435.66
2019-02-05T13:11:03.687Z,95435.97
2019-02-05T13:13:31.257Z,95435.51
2019-02-05T13:15:58.746Z,95434.30
2019-02-05T13:18:26.189Z,95438.11
2019-02-05T13:20:53.666Z,95428.14
2019-02-05T13:23:21.145Z,95429.95
2019-02-05T13:25:48.560Z,95427.98
2019-02-05T13:28:16.235Z,95423.58
2019-02-05T13:30:43.746Z,95425.53
2019-02-05T13:33:13.561Z,95423.24
2019-02-05T13:35:41.247Z,95431.67
2019-02-05T13:38:08.734Z,95426.98
2019-02-05T13:40:36.309Z,95422.27
2019-02-05T13:43:04.540Z,95429.77
2019-02-05T13:45:33.175Z,95440.77
2019-02-05T13:48:01.133Z,95432.00
2019-02-05T13:50:33.405Z,95438.58
2019-02-05T13:52:59.764Z,95443.67
2019-02-05T13:55:29.881Z,95430.97
2019-02-05T13:57:57.496Z,95431.16
2019-02-05T14:00:27.988Z,95437.30
2019-02-05T14:02:55.686Z,95437.30
2019-02-05T14:05:23.462Z,95438.80
2019-02-05T14:07:50.897Z,95432.00
2019-02-05T14:10:21.471Z,95427.78
2019-02-05T14:12:48.941Z,95442.37
2019-02-05T14:15:19.026Z,95439.36
2019-02-05T14:17:46.476Z,95451.16
2019-02-05T14:20:14.155Z,95449.84
2019-02-05T14:22:41.790Z,95461.93
2019-02-05T14:25:10.794Z,95453.20
2019-02-05T14:27:38.284Z,95459.06
2019-02-05T14:30:09.032Z,95455.58
2019-02-05T14:32:36.514Z,95461.72
2019-02-05T14:35:05.738Z,95459.76
2019-02-05T14:37:33.138Z,95457.50
2019-02-05T14:40:00.688Z,95465.32
2019-02-05T14:42:28.153Z,95454.58
2019-02-05T14:44:55.636Z,95459.98
2019-02-05T14:47:22.999Z,95459.66
2019-02-05T14:49:50.461Z,95470.11
2019-02-05T14:52:18.012Z,95461.99
2019-02-05T14:54:45.392Z,95463.24
2019-02-05T14:57:13.068Z,95464.47
2019-02-05T14:59:40.621Z,95466.33
2019-02-05T15:02:08.142Z,95463.31
2019-02-05T15:04:35.669Z,95470.06
2019-02-05T15:07:03.794Z,95458.14
2019-02-05T15:09:31.227Z,95472.09
2019-02-05T15:11:58.592Z,95474.30
2019-02-05T15:14:26.022Z,95478.94
2019-02-05T15:16:53.456Z,95475.15
2019-02-05T15:19:21.005Z,95486.43
2019-02-05T15:21:48.413Z,95483.13
2019-02-05T15:24:15.856Z,95490.70
2019-02-05T15:26:43.318Z,95484.64
2019-02-05T15:29:10.784Z,95492.21
2019-02-05T15:31:38.290Z,95501.12
2019-02-05T15:34:17.042Z,95502.79
2019-02-05T15:36:47.162Z,95501.08
2019-02-05T15:39:15.380Z,95500.09
2019-02-05T15:41:45.355Z,95502.47
2019-02-05T15:44:13.184Z,95503.56
2019-02-05T15:46:40.806Z,95509.52
2019-02-05T15:49:08.240Z,95507.81
2019-02-05T15:51:35.637Z,95510.03
2019-02-05T15:54:03.455Z,95514.91
2019-02-05T15:56:30.992Z,95511.44
2019-02-05T15:58:58.522Z,95522.59
2019-02-05T16:01:26.459Z,95517.23
2019-02-05T16:03:53.981Z,95525.36
2019-02-05T16:06:23.978Z,95519.70
2019-02-05T16:08:51.660Z,95518.66
2019-02-05T16:11:19.177Z,95526.52
2019-02-05T16:13:46.639Z,95535.91
2019-02-05T16:16:14.212Z,95534.77
2019-02-05T16:18:42.018Z,95531.22
2019-02-05T16:21:09.399Z,95533.78
2019-02-05T16:23:36.849Z,95529.61
2019-02-05T16:26:04.424Z,95531.55
2019-02-05T16:28:31.859Z,95538.20
2019-02-05T16:30:59.226Z,95532.95
2019-02-05T16:33:26.799Z,95536.30
2019-02-05T16:35:55.024Z,95534.26
2019-02-05T16:38:23.207Z,95540.83
2019-02-05T16:40:51.142Z,95553.89
2019-02-05T16:43:18.640Z,95542.05
2019-02-05T16:45:46.023Z,95549.92
2019-02-05T16:48:13.580Z,95548.22
2019-02-05T16:50:42.910Z,95550.45
2019-02-05T16:53:10.842Z,95555.30
2019-02-05T16:55:38.386Z,95551.53
2019-02-05T16:58:06.535Z,95548.36
2019-02-05T17:00:34.413Z,95545.72
2019-02-05T17:03:02.074Z,95554.48
2019-02-05T17:05:33.542Z,95551.78
2019-02-05T17:08:01.309Z,95545.75
2019-02-05T17:10:29.188Z,95551.22
2019-02-05T17:12:56.581Z,95554.37
2019-02-05T17:15:24.278Z,95544.79
2019-02-05T17:17:52.005Z,95542.55
2019-02-05T17:20:26.809Z,95541.33
2019-02-05T17:22:54.429Z,95539.98
2019-02-05T17:25:23.428Z,95541.12
2019-02-05T17:27:51.102Z,95533.58
2019-02-05T17:30:23.560Z,95543.28
2019-02-05T17:32:51.177Z,95541.45
2019-02-05T17:35:19.435Z,95532.04
2019-02-05T17:37:47.144Z,95535.73
2019-02-05T17:40:16.585Z,95527.63
2019-02-05T17:42:44.016Z,95525.36
2019-02-05T17:45:16.926Z,95527.23
2019-02-05T17:47:44.562Z,95521.02
2019-02-05T17:50:12.224Z,95517.38
2019-02-05T17:52:40.546Z,95527.03
2019-02-05T17:55:10.076Z,95514.95
2019-02-05T17:57:41.095Z,95516.16
2019-02-05T18:00:51.527Z,95515.56
2019-02-05T18:03:23.440Z,95507.30
2019-02-05T18:05:54.361Z,95527.58
2019-02-05T18:08:22.046Z,95529.58
2019-02-05T18:10:49.609Z,95521.72
2019-02-05T18:13:17.150Z,95520.48
2019-02-05T18:15:44.666Z,95519.84
2019-02-05T18:18:12.477Z,95523.97
2019-02-05T18:20:39.948Z,95532.52
2019-02-05T18:23:07.649Z,95537.20
2019-02-05T18:25:35.189Z,95528.37
2019-02-05T18:28:03.355Z,95525.31
2019-02-05T18:30:31.757Z,95530.48
2019-02-05T18:33:03.600Z,95537.15
2019-02-05T18:35:29.388Z,95535.56
2019-02-05T18:37:57.007Z,95531.24
2019-02-05T18:40:24.655Z,95529.90
2019-02-05T18:42:52.728Z,95530.59
2019-02-05T18:45:20.171Z,95545.72
2019-02-05T18:47:47.967Z,95546.66
2019-02-05T18:50:18.249Z,95536.15
2019-02-05T18:52:46.198Z,95534.31
2019-02-05T18:55:14.411Z,95531.75
2019-02-05T18:57:41.840Z,95538.23
2019-02-05T19:00:19.524Z,95533.46
2019-02-05T19:02:47.111Z,95535.66
2019-02-05T19:05:14.797Z,95528.00
2019-02-05T19:07:42.638Z,95529.66
2019-02-05T19:10:11.971Z,95528.23
2019-02-05T19:12:39.507Z,95525.70
2019-02-05T19:15:14.336Z,95522.98
2019-02-05T19:17:41.798Z,95517.73
2019-02-05T19:20:09.589Z,95527.59
2019-02-05T19:22:37.545Z,95520.91
2019-02-05T19:25:37.483Z,95532.61
2019-02-05T19:28:05.186Z,95528.52
2019-02-05T19:30:33.594Z,95520.22
2019-02-05T19:33:02.263Z,95505.30
2019-02-05T19:35:29.691Z,95511.09
2019-02-05T19:37:57.117Z,95502.28
2019-02-05T19:40:24.568Z,95512.19
2019-02-05T19:42:51.955Z,95508.64
2019-02-05T19:45:44.979Z,95503.95
2019-02-05T19:48:19.343Z,95494.55
2019-02-05T19:50:47.554Z,95496.75
2019-02-05T19:53:15.109Z,95496.63
2019-02-05T19:55:42.507Z,95493.25
2019-02-05T19:58:12.920Z,95491.73
2019-02-05T20:00:40.679Z,95496.02
2019-02-05T20:03:08.145Z,95495.13
2019-02-05T20:05:35.701Z,95499.45
2019-02-05T20:08:03.524Z,95488.69
2019-02-05T20:10:30.989Z,95491.27
2019-02-05T20:12:58.535Z,95500.67
2019-02-05T20:15:26.087Z,95499.03
2019-02-05T20:17:53.513Z,95485.30
2019-02-05T20:20:20.995Z,95499.15
2019-02-05T20:22:48.912Z,95489.42
2019-02-05T20:25:16.610Z,95490.69
2019-02-05T20:27:44.175Z,95498.96
2019-02-05T20:30:13.827Z,95504.70
2019-02-05T20:32:41.261Z,95503.02
2019-02-05T20:35:08.856Z,95490.81
2019-02-05T20:37:36.312Z,95487.23
2019-02-05T20:40:08.319Z,95483.56
2019-02-05T20:42:35.861Z,95470.53
2019-02-05T20:45:04.045Z,95473.45
2019-02-05T20:47:32.279Z,95465.39
2019-02-05T20:49:59.731Z,95467.76
2019-02-05T20:52:27.179Z,95468.81
2019-02-05T20:54:54.573Z,95477.58
2019-02-05T20:57:22.026Z,95462.98
2019-02-05T20:59:49.858Z,95463.11
2019-02-05T21:02:17.444Z,95457.73
2019-02-05T21:04:48.527Z,95458.72
2019-02-05T21:07:14.306Z,95459.30
2019-02-05T21:09:42.501Z,95465.84
2019-02-05T21:12:09.966Z,95463.84
2019-02-05T21:14:37.457Z,95456.55
2019-02-05T21:17:04.975Z,95454.85
2019-02-05T21:19:32.722Z,95461.86
2019-02-05T21:22:00.171Z,95456.06
2019-02-05T21:24:27.565Z,95449.14
2019-02-05T21:26:54.994Z,95451.18
2019-02-05T21:29:22.536Z,95440.76
2019-02-05T21:31:49.986Z,95442.55
2019-02-05T21:34:17.753Z,95448.13
2019-02-05T21:36:45.230Z,95443.66
2019-02-05T21:39:12.846Z,95445.39
2019-02-05T21:41:40.440Z,95449.02
2019-02-05T21:44:08.089Z,95453.09
2019-02-05T21:46:35.516Z,95457.77
2019-02-05T21:49:03.351Z,95461.80
2019-02-05T21:51:40.347Z,95449.13
2019-02-05T21:54:00.086Z,95453.33
2019-02-05T21:56:28.054Z,95447.71
2019-02-05T21:58:55.483Z,95442.17
2019-02-05T22:01:23.311Z,95441.34
2019-02-05T22:03:50.939Z,95437.48
2019-02-05T22:06:18.664Z,95439.40
2019-02-05T22:08:46.126Z,95442.50
2019-02-05T22:11:13.584Z,95445.19
2019-02-05T22:13:41.057Z,95450.89
2019-02-05T22:16:08.472Z,95442.95
2019-02-05T22:18:35.901Z,95452.77
2019-02-05T22:21:03.923Z,95461.28
2019-02-05T22:23:31.706Z,95443.04
2019-02-05T22:25:59.142Z,95436.79
2019-02-05T22:28:26.667Z,95444.30
2019-02-05T22:30:54.098Z,95444.17
2019-02-05T22:33:21.468Z,95431.59
2019-02-05T22:35:49.042Z,95413.92
2019-02-05T22:38:16.487Z,95421.33
2019-02-05T22:40:43.847Z,95418.00
2019-02-05T22:43:11.704Z,95410.13
2019-02-05T22:45:41.097Z,95417.88
2019-02-05T22:48:08.614Z,95419.59
2019-02-05T22:50:36.179Z,95415.15
2019-02-05T22:53:03.973Z,95410.27
2019-02-05T22:55:31.342Z,95405.70
2019-02-05T22:57:58.799Z,95421.88
2019-02-05T23:00:54.393Z,95418.04
2019-02-05T23:03:36.796Z,95422.72
2019-02-05T23:06:39.990Z,95412.67
2019-02-05T23:09:23.565Z,95411.29
2019-02-05T23:12:28.617Z,95402.09
2019-02-05T23:15:22.261Z,95390.48
2019-02-05T23:17:49.884Z,95390.23
2019-02-05T23:20:19.416Z,95373.30
2019-02-05T23:22:47.222Z,95362.97
2019-02-05T23:25:14.756Z,95364.11
2019-02-05T23:27:42.289Z,95361.70
2019-02-05T23:30:25.316Z,95366.67
2019-02-05T23:32:52.764Z,95371.70
2019-02-05T23:35:20.244Z,95382.34
2019-02-05T23:37:47.946Z,95372.11
2019-02-05T23:40:15.674Z,95369.02
2019-02-05T23:42:43.125Z,95359.66
2019-02-05T23:45:10.713Z,95365.81
2019-02-05T23:47:38.264Z,95361.63
2019-02-05T23:50:07.069Z,95361.21
2019-02-05T23:52:34.433Z,95365.58
2019-02-05T23:55:02.067Z,95361.87
2019-02-05T23:57:29.490Z,95362.08
2019-02-05T23:59:56.873Z,95358.70
